Time;durP1;ratioP1;P1;durP2;ratioP2;P2;SDS_P1;SDS_P2;PMS_P1;PMS_P2;Temp;Humidity;BMP_temperature;BMP_pressure;BME280_temperature;BME280_humidity;BME280_pressure;Samples;Min_cycle;Max_cycle;Signal;HPM_P1;HPM_P2
2022/12/08 00:12:29;;;;;;;11.53;10.43;;;5.80;99.90;;;;;;10363504;28;20230;-82
2022/12/08 00:17:38;;;;;;;10.67;9.67;;;5.80;99.90;;;;;;10334027;28;20214;-85
2022/12/08 00:22:41;;;;;;;11.60;10.60;;;5.90;99.90;;;;;;10357057;28;20215;-84
2022/12/08 00:38:58;;;;;;;9.73;8.93;;;5.90;99.90;;;;;;10558329;22;20254;-84
2022/12/08 00:44:39;;;;;;;;;;;;;;;;;;;;;
2022/12/08 00:56:16;;;;;;;8.67;7.97;;;5.60;99.90;;;;;;10437472;28;20186;-82
2022/12/08 01:02:05;;;;;;;9.67;8.87;;;5.30;99.90;;;;;;10512737;23;20215;-81
2022/12/08 01:19:05;;;;;;;8.67;7.97;;;5.00;99.90;;;;;;10381876;28;20293;-84
2022/12/08 01:24:46;;;;;;;10.00;9.00;;;4.90;99.90;;;;;;10382372;28;20268;-84
2022/12/08 01:30:29;;;;;;;9.00;8.30;;;4.80;99.90;;;;;;10398213;28;20293;-84
2022/12/08 01:36:16;;;;;;;9.53;8.53;;;4.70;99.90;;;;;;10363362;28;20681;-85
2022/12/08 01:52:26;;;;;;;11.57;10.57;;;4.30;99.90;;;;;;10619786;22;20268;-84
2022/12/08 01:58:05;;;;;;;;;;;;;;;;;;;;;
2022/12/08 02:03:38;;;;;;;11.00;9.90;;;4.20;99.90;;;;;;10518866;28;20208;-84
2022/12/08 02:09:38;;;;;;;10.50;9.60;;;4.10;99.90;;;;;;10597054;22;20223;-84
2022/12/08 02:15:15;;;;;;;10.87;9.87;;;4.10;99.90;;;;;;10393446;28;20201;-83
2022/12/08 02:21:13;;;;;;;10.90;9.90;;;3.90;99.90;;;;;;10498731;28;20212;-84
2022/12/08 02:27:51;;;;;;;;;;;;;;;;;;;;;
2022/12/08 02:39:14;;;;;;;10.67;9.20;;;3.70;99.90;;;;;;10473136;28;20217;-85
2022/12/08 02:44:23;;;;;;;10.80;9.90;;;3.80;99.90;;;;;;10517620;28;20228;-82
2022/12/08 02:49:28;;;;;;;9.40;8.63;;;3.70;99.90;;;;;;10501582;28;20281;-79
2022/12/08 02:55:40;;;;;;;;;;;;;;;;;;;;;
2022/12/08 03:07:04;;;;;;;11.27;10.27;;;3.40;99.90;;;;;;10445366;28;20288;-84
2022/12/08 03:12:14;;;;;;;10.50;9.60;;;3.50;99.90;;;;;;10551520;28;20221;-83
2022/12/08 03:17:19;;;;;;;10.33;9.43;;;3.60;99.90;;;;;;10536639;28;20701;-86
2022/12/08 03:22:24;;;;;;;10.50;9.50;;;3.70;99.90;;;;;;10548760;28;20220;-85
2022/12/08 03:27:29;;;;;;;10.80;9.90;;;3.70;99.90;;;;;;10576677;28;20226;-85
2022/12/08 03:32:46;;;;;;;11.60;10.60;;;3.80;99.90;;;;;;10567602;28;20191;-85
2022/12/08 03:37:48;;;;;;;10.33;9.43;;;3.80;99.90;;;;;;10591687;28;20600;-85
2022/12/08 03:42:50;;;;;;;9.77;8.83;;;3.70;99.90;;;;;;10590545;28;20272;-85
2022/12/08 03:47:54;;;;;;;9.80;9.00;;;3.60;99.90;;;;;;10562612;28;20557;-85
2022/12/08 03:53:03;;;;;;;9.70;8.80;;;3.40;99.90;;;;;;10574652;28;20187;-84
2022/12/08 04:03:44;;;;;;;9.87;9.07;;;3.40;99.90;;;;;;10578996;28;20226;-85
2022/12/08 04:08:46;;;;;;;10.10;9.27;;;3.40;99.90;;;;;;10537452;22;20244;-85
2022/12/08 04:13:48;;;;;;;10.30;9.40;;;3.50;99.90;;;;;;10496475;28;20227;-84
2022/12/08 04:19:30;;;;;;;20.03;14.73;;;3.50;99.90;;;;;;10483856;28;20630;-82
2022/12/08 04:24:49;;;;;;;36.20;23.83;;;3.40;99.90;;;;;;10461353;28;20277;-81
2022/12/08 04:30:06;;;;;;;14.30;12.90;;;3.40;99.90;;;;;;10425970;28;20292;-82
2022/12/08 04:35:29;;;;;;;10.00;9.20;;;3.40;99.90;;;;;;10479956;28;20632;-84
2022/12/08 04:52:32;;;;;;;10.80;9.80;;;3.40;99.90;;;;;;10451701;28;20189;-84
2022/12/08 04:57:40;;;;;;;10.27;9.37;;;3.50;99.90;;;;;;10484942;28;20277;-85
2022/12/08 05:03:00;;;;;;;9.77;8.97;;;3.50;99.90;;;;;;10471361;28;20245;-84
2022/12/08 05:08:17;;;;;;;10.50;9.50;;;3.50;99.90;;;;;;10482465;28;20251;-84
2022/12/08 05:13:31;;;;;;;8.17;7.50;;;3.30;99.90;;;;;;10493768;28;20212;-85
2022/12/08 05:18:37;;;;;;;12.30;11.20;;;3.20;99.90;;;;;;10493625;28;20213;-84
2022/12/08 05:23:51;;;;;;;11.13;10.03;;;3.10;99.90;;;;;;10465543;28;20677;-83
2022/12/08 05:34:34;;;;;;;10.90;9.90;;;3.10;99.90;;;;;;10472621;28;20249;-83
2022/12/08 05:45:01;;;;;;;10.17;9.17;;;3.20;99.90;;;;;;10489107;28;20208;-85
2022/12/08 05:50:04;;;;;;;9.90;9.00;;;3.20;99.90;;;;;;10460322;28;20595;-84
2022/12/08 05:55:09;;;;;;;9.10;8.20;;;3.20;99.90;;;;;;10444177;28;20189;-82
2022/12/08 06:00:12;;;;;;;10.50;8.33;;;3.30;99.90;;;;;;10468402;28;20213;-84
2022/12/08 06:05:14;;;;;;;11.07;10.07;;;3.40;99.90;;;;;;10458113;28;20221;-83
2022/12/08 06:10:18;;;;;;;8.70;8.00;;;3.40;99.90;;;;;;10458175;28;20263;-84
2022/12/08 06:15:20;;;;;;;10.20;9.23;;;3.40;99.90;;;;;;10474848;28;20201;-83
2022/12/08 06:20:22;;;;;;;8.63;7.93;;;3.40;99.90;;;;;;10479824;28;20278;-85
2022/12/08 06:25:25;;;;;;;8.37;7.67;;;3.40;99.90;;;;;;10431012;28;20214;-84
2022/12/08 06:30:27;;;;;;;9.40;8.50;;;3.40;99.90;;;;;;10442617;28;20291;-84
2022/12/08 06:35:30;;;;;;;9.03;8.03;;;3.40;99.90;;;;;;10486217;28;20613;-84
2022/12/08 06:40:33;;;;;;;7.50;6.90;;;3.40;99.90;;;;;;10462574;28;20213;-82
2022/12/08 06:45:36;;;;;;;9.70;8.70;;;3.30;99.90;;;;;;10457231;28;20220;-81
2022/12/08 06:50:38;;;;;;;8.90;8.20;;;3.30;99.90;;;;;;10488930;28;20270;-83
2022/12/08 06:55:45;;;;;;;7.53;6.90;;;3.30;99.90;;;;;;10494010;28;20219;-82
2022/12/08 07:00:47;;;;;;;8.67;7.90;;;3.30;99.90;;;;;;10478210;28;20385;-81
2022/12/08 07:05:49;;;;;;;9.57;8.70;;;3.30;99.90;;;;;;10453433;28;20213;-82
2022/12/08 07:10:53;;;;;;;67.77;36.30;;;3.30;99.90;;;;;;10554145;22;20231;-81
2022/12/08 07:15:55;;;;;;;13.33;12.00;;;3.30;99.90;;;;;;10526378;28;20279;-81
2022/12/08 07:20:57;;;;;;;10.37;8.40;;;3.30;99.90;;;;;;10496588;28;20216;-81
2022/12/08 07:26:02;;;;;;;9.90;8.67;;;3.30;99.90;;;;;;10483857;28;20265;-82
2022/12/08 07:31:05;;;;;;;25.63;19.80;;;3.30;99.90;;;;;;10485816;28;20223;-80
2022/12/08 07:36:08;;;;;;;18.27;15.77;;;3.30;99.90;;;;;;10506544;28;20299;-82
2022/12/08 07:41:16;;;;;;;13.00;10.30;;;3.30;99.90;;;;;;10489281;28;20700;-81
2022/12/08 07:46:20;;;;;;;10.87;9.70;;;3.30;99.90;;;;;;10512010;28;20191;-81
2022/12/08 07:51:23;;;;;;;11.00;9.90;;;3.20;99.90;;;;;;10474916;28;20655;-80
2022/12/08 07:56:27;;;;;;;10.63;9.63;;;3.20;99.90;;;;;;10485047;28;20237;-82
2022/12/08 08:01:31;;;;;;;9.03;8.23;;;3.20;99.90;;;;;;10491976;28;20219;-80
2022/12/08 08:06:35;;;;;;;10.53;9.57;;;3.30;99.90;;;;;;10468900;28;20202;-83
2022/12/08 08:11:38;;;;;;;9.27;8.47;;;3.30;99.90;;;;;;10467174;28;20354;-83
2022/12/08 08:16:45;;;;;;;12.30;8.83;;;3.40;99.90;;;;;;10502098;28;20192;-82
2022/12/08 08:21:47;;;;;;;10.47;8.60;;;3.50;99.90;;;;;;10486794;28;20299;-83
2022/12/08 08:26:52;;;;;;;9.37;8.47;;;3.60;99.90;;;;;;10482283;28;20288;-83
2022/12/08 08:31:54;;;;;;;9.00;8.27;;;3.50;99.90;;;;;;10469020;28;20219;-83
2022/12/08 08:36:56;;;;;;;9.20;8.40;;;3.60;99.90;;;;;;10484887;28;20204;-83
2022/12/08 08:42:00;;;;;;;8.87;8.07;;;3.50;99.90;;;;;;10484136;28;20208;-83
2022/12/08 08:47:02;;;;;;;13.00;10.20;;;3.60;99.90;;;;;;10512981;28;20255;-81
2022/12/08 08:52:05;;;;;;;9.97;9.07;;;3.60;99.90;;;;;;10473260;28;20230;-81
2022/12/08 08:57:09;;;;;;;10.27;9.30;;;3.70;99.90;;;;;;10497859;28;20197;-81
2022/12/08 09:02:17;;;;;;;22.70;18.53;;;3.80;99.90;;;;;;10492759;28;20569;-81
2022/12/08 09:07:19;;;;;;;13.40;11.20;;;4.00;99.90;;;;;;10495043;28;20217;-82
2022/12/08 09:12:22;;;;;;;11.67;9.80;;;4.20;99.90;;;;;;10491330;28;20632;-81
2022/12/08 09:17:24;;;;;;;11.40;10.30;;;4.30;99.90;;;;;;10481421;28;20196;-81
2022/12/08 09:22:26;;;;;;;16.60;12.73;;;4.40;99.90;;;;;;10504590;28;20208;-81
2022/12/08 09:27:31;;;;;;;10.90;9.87;;;4.50;99.90;;;;;;10491191;28;20192;-81
2022/12/08 09:32:33;;;;;;;12.43;11.00;;;4.50;99.90;;;;;;10472127;28;20196;-81
2022/12/08 09:37:36;;;;;;;12.03;10.83;;;4.60;99.90;;;;;;10488882;28;20558;-84
2022/12/08 09:42:47;;;;;;;13.17;11.77;;;4.70;99.90;;;;;;10486950;28;20269;-81
2022/12/08 09:47:59;;;;;;;11.40;10.40;;;4.80;99.90;;;;;;10455228;28;20303;-82
2022/12/08 09:53:07;;;;;;;11.63;10.53;;;4.80;99.90;;;;;;10468040;28;20197;-82
2022/12/08 09:58:19;;;;;;;12.50;11.30;;;4.90;99.90;;;;;;10454772;28;20212;-82
2022/12/08 10:03:26;;;;;;;10.37;9.43;;;5.00;99.90;;;;;;10478182;28;20216;-81
2022/12/08 10:08:39;;;;;;;9.40;8.60;;;5.00;99.90;;;;;;10491237;28;20224;-81
2022/12/08 10:13:52;;;;;;;11.40;9.83;;;5.00;99.90;;;;;;10463083;28;20204;-82
2022/12/08 10:19:01;;;;;;;11.10;10.20;;;5.10;99.90;;;;;;10483105;28;20697;-83
2022/12/08 10:24:09;;;;;;;10.07;9.17;;;5.10;99.90;;;;;;10463307;28;20217;-83
2022/12/08 10:29:14;;;;;;;9.73;8.83;;;5.20;99.90;;;;;;10461978;28;20232;-82
2022/12/08 10:34:19;;;;;;;9.60;8.80;;;5.30;99.90;;;;;;10463578;28;20193;-80
2022/12/08 10:39:36;;;;;;;10.80;9.80;;;5.30;99.90;;;;;;10464937;28;20227;-82
2022/12/08 10:44:59;;;;;;;10.60;8.83;;;5.40;99.90;;;;;;10460435;28;20763;-81
2022/12/08 10:50:18;;;;;;;10.17;8.73;;;5.40;99.90;;;;;;10465447;28;20220;-81
2022/12/08 10:55:21;;;;;;;15.10;10.30;;;5.50;99.90;;;;;;10483618;28;20231;-82
2022/12/08 11:00:27;;;;;;;10.13;9.03;;;5.60;99.90;;;;;;10512913;28;20224;-81
2022/12/08 11:05:33;;;;;;;10.97;8.67;;;5.80;99.90;;;;;;10506225;28;20208;-81
2022/12/08 11:10:38;;;;;;;8.27;7.60;;;5.90;99.90;;;;;;10505400;28;20326;-81
2022/12/08 11:15:44;;;;;;;10.77;8.73;;;6.10;99.90;;;;;;10481003;28;20574;-80
2022/12/08 11:20:46;;;;;;;9.13;8.23;;;6.30;99.90;;;;;;10478349;28;20291;-81
2022/12/08 11:25:49;;;;;;;8.60;7.87;;;6.50;99.90;;;;;;10485782;28;20247;-80
2022/12/08 11:31:02;;;;;;;9.17;8.27;;;6.60;99.90;;;;;;10501591;28;20307;-81
2022/12/08 11:36:09;;;;;;;9.13;8.30;;;6.60;99.90;;;;;;10468860;28;20581;-81
2022/12/08 11:41:16;;;;;;;7.67;7.00;;;6.60;99.90;;;;;;10490612;28;20216;-80
2022/12/08 11:46:23;;;;;;;8.77;8.03;;;6.70;99.90;;;;;;10477517;28;20240;-81
2022/12/08 11:51:32;;;;;;;9.17;8.37;;;6.90;99.90;;;;;;10477755;28;20661;-81
2022/12/08 11:56:37;;;;;;;7.03;6.43;;;7.10;99.90;;;;;;10471025;28;20586;-81
2022/12/08 12:01:40;;;;;;;7.37;6.77;;;7.20;99.90;;;;;;10512987;28;20584;-81
2022/12/08 12:07:08;;;;;;;8.00;7.30;;;7.40;99.90;;;;;;10485944;28;20227;-81
2022/12/08 12:12:24;;;;;;;7.80;7.10;;;7.40;98.50;;;;;;10464798;28;20224;-82
2022/12/08 12:17:42;;;;;;;6.80;6.30;;;7.40;99.90;;;;;;10496195;28;20559;-81
2022/12/08 12:22:48;;;;;;;5.90;5.50;;;7.40;99.90;;;;;;10513386;28;20265;-81
2022/12/08 12:27:53;;;;;;;7.10;6.50;;;7.40;99.90;;;;;;10512280;28;20216;-81
2022/12/08 12:33:00;;;;;;;6.60;6.00;;;7.50;99.90;;;;;;10504282;28;20610;-80
2022/12/08 12:38:59;;;;;;;7.37;6.77;;;7.50;99.90;;;;;;10500781;28;20223;-80
2022/12/08 12:43:32;;;;;;;6.37;5.87;;;7.60;99.90;;;;;;10483221;28;20221;-81
2022/12/08 12:48:38;;;;;;;6.87;6.17;;;7.70;99.90;;;;;;10492800;28;20216;-81
2022/12/08 12:53:49;;;;;;;6.70;6.10;;;7.70;99.90;;;;;;10472966;28;20192;-81
2022/12/08 12:58:54;;;;;;;4.77;4.47;;;7.70;99.90;;;;;;10501060;28;20235;-81
2022/12/08 13:04:06;;;;;;;6.00;5.40;;;7.70;99.90;;;;;;10464340;28;20275;-82
2022/12/08 13:09:23;;;;;;;6.70;6.20;;;7.70;99.90;;;;;;10522754;22;20292;-86
2022/12/08 13:14:31;;;;;;;6.23;5.73;;;7.70;99.90;;;;;;10566241;28;20617;-82
2022/12/08 13:19:37;;;;;;;5.77;5.27;;;7.70;99.90;;;;;;10550761;28;20233;-82
2022/12/08 13:24:39;;;;;;;6.53;5.93;;;7.70;99.90;;;;;;10573127;28;20287;-84
2022/12/08 13:29:41;;;;;;;6.57;5.97;;;7.70;99.90;;;;;;10582592;28;20223;-83
2022/12/08 13:34:52;;;;;;;6.00;5.40;;;7.70;99.50;;;;;;10546893;28;20264;-83
2022/12/08 13:39:59;;;;;;;7.57;6.93;;;7.60;99.80;;;;;;10546165;28;20225;-84
2022/12/08 13:45:05;;;;;;;7.63;7.03;;;7.60;99.90;;;;;;10545891;28;20223;-82
2022/12/08 13:50:15;;;;;;;6.27;5.77;;;7.50;99.90;;;;;;10547180;28;20822;-85
2022/12/08 13:55:22;;;;;;;7.77;7.03;;;7.50;99.90;;;;;;10549117;28;20240;-86
2022/12/08 14:00:26;;;;;;;8.03;7.23;;;7.40;99.90;;;;;;10546891;28;20207;-85
2022/12/08 14:05:41;;;;;;;7.47;6.83;;;7.40;99.50;;;;;;10543820;28;20218;-84
2022/12/08 14:10:43;;;;;;;7.67;6.97;;;7.40;99.90;;;;;;10563852;28;20222;-86
2022/12/08 14:15:46;;;;;;;8.07;7.37;;;7.40;99.90;;;;;;10564414;28;20547;-85
2022/12/08 14:21:00;;;;;;;7.20;6.50;;;7.40;99.90;;;;;;10564412;28;20245;-82
2022/12/08 14:26:04;;;;;;;6.97;6.37;;;7.40;99.90;;;;;;10571582;28;20221;-85
2022/12/08 14:31:08;;;;;;;10.60;8.93;;;7.40;99.90;;;;;;10592855;28;20211;-85
2022/12/08 14:36:20;;;;;;;7.80;7.10;;;7.40;99.90;;;;;;10570119;28;20842;-85
2022/12/08 14:41:27;;;;;;;7.87;7.23;;;7.40;99.90;;;;;;10588005;28;20207;-86
2022/12/08 14:46:30;;;;;;;7.50;6.90;;;7.40;99.90;;;;;;10570908;28;20330;-85
2022/12/08 14:51:33;;;;;;;6.70;6.20;;;7.40;99.90;;;;;;10570050;28;20203;-85
2022/12/08 14:56:38;;;;;;;12.73;6.20;;;7.30;99.90;;;;;;10570708;28;20187;-83
2022/12/08 15:01:44;;;;;;;7.03;6.43;;;7.30;99.90;;;;;;10553424;28;20690;-85
2022/12/08 15:06:52;;;;;;;7.20;6.60;;;7.30;98.50;;;;;;10581367;28;20694;-82
2022/12/08 15:12:01;;;;;;;6.40;5.80;;;7.10;99.10;;;;;;10570866;28;20238;-86
2022/12/08 15:17:04;;;;;;;7.23;6.63;;;7.10;98.80;;;;;;10568527;28;20255;-85
2022/12/08 15:22:17;;;;;;;6.73;6.13;;;7.00;99.20;;;;;;10573349;28;20212;-83
2022/12/08 15:27:22;;;;;;;9.73;7.00;;;7.00;98.40;;;;;;10567715;28;20218;-82
2022/12/08 15:32:24;;;;;;;7.40;6.70;;;7.00;99.70;;;;;;10567740;28;20222;-84
2022/12/08 15:37:28;;;;;;;7.20;6.60;;;6.90;99.90;;;;;;10588371;28;20294;-83
2022/12/08 15:42:30;;;;;;;6.87;6.27;;;6.90;99.90;;;;;;10587582;28;20686;-83
2022/12/08 15:47:33;;;;;;;7.80;7.03;;;7.00;99.90;;;;;;10552326;28;20219;-82
2022/12/08 15:52:36;;;;;;;8.50;7.80;;;7.00;99.90;;;;;;10588120;28;20246;-86
2022/12/08 15:57:39;;;;;;;7.83;7.23;;;7.00;99.90;;;;;;10572785;28;20261;-82
2022/12/08 16:02:41;;;;;;;8.37;7.67;;;7.00;99.90;;;;;;10589318;28;20539;-83
2022/12/08 16:07:44;;;;;;;8.73;7.93;;;7.00;99.90;;;;;;10587190;28;20188;-83
2022/12/08 16:18:13;;;;;;;8.90;8.20;;;6.90;99.60;;;;;;10536523;28;20697;-83
2022/12/08 16:23:16;;;;;;;11.10;10.10;;;6.90;99.90;;;;;;10551018;28;20199;-81
2022/12/08 16:28:18;;;;;;;11.17;8.77;;;6.90;99.90;;;;;;10567033;28;20211;-85
2022/12/08 16:33:21;;;;;;;7.90;7.20;;;6.90;99.90;;;;;;10563155;28;20199;-86
2022/12/08 16:38:24;;;;;;;17.93;16.13;;;6.90;98.80;;;;;;10573584;28;20211;-85
2022/12/08 16:43:26;;;;;;;8.50;7.80;;;6.80;99.70;;;;;;10587074;28;20306;-84
2022/12/08 16:48:29;;;;;;;9.60;8.60;;;6.80;99.90;;;;;;10569255;28;20285;-83
2022/12/08 16:53:32;;;;;;;10.70;9.60;;;6.80;99.90;;;;;;10585177;28;20175;-84
2022/12/08 16:58:41;;;;;;;9.10;8.30;;;6.90;99.90;;;;;;10565092;28;20238;-85
2022/12/08 17:03:45;;;;;;;12.13;10.90;;;6.80;99.90;;;;;;10544517;28;20207;-85
2022/12/08 17:08:48;;;;;;;11.07;9.93;;;6.80;99.90;;;;;;10546426;28;20227;-87
2022/12/08 17:13:50;;;;;;;9.70;8.90;;;6.90;99.90;;;;;;10579730;28;20211;-85
2022/12/08 17:18:53;;;;;;;13.70;12.13;;;6.80;99.90;;;;;;10585169;28;20293;-85
2022/12/08 17:23:57;;;;;;;8.93;8.13;;;6.80;99.90;;;;;;10585777;28;20211;-86
2022/12/08 17:29:01;;;;;;;13.90;12.40;;;6.80;99.40;;;;;;10566885;28;20298;-86
2022/12/08 17:34:07;;;;;;;9.27;8.37;;;6.80;99.90;;;;;;10550776;28;20191;-84
2022/12/08 17:39:12;;;;;;;8.37;7.67;;;6.80;99.90;;;;;;10590589;28;20222;-82
2022/12/08 17:44:17;;;;;;;10.20;9.40;;;6.80;99.90;;;;;;10586508;28;20601;-80
2022/12/08 17:49:21;;;;;;;9.30;8.40;;;6.80;99.90;;;;;;10566885;28;20239;-82
2022/12/08 17:54:25;;;;;;;10.77;9.70;;;6.80;99.90;;;;;;10566503;28;20187;-82
2022/12/08 17:59:28;;;;;;;12.37;11.13;;;6.80;99.90;;;;;;10590902;28;20628;-80
2022/12/08 18:04:30;;;;;;;8.77;7.90;;;6.80;99.90;;;;;;10594778;28;20230;-83
2022/12/08 18:09:33;;;;;;;9.40;7.87;;;6.80;99.70;;;;;;10599848;28;20219;-82
2022/12/08 18:14:35;;;;;;;7.53;6.90;;;6.80;99.90;;;;;;10603840;28;20187;-81
2022/12/08 18:19:37;;;;;;;8.97;8.17;;;6.80;99.90;;;;;;10579268;28;20203;-82
2022/12/08 18:24:41;;;;;;;8.07;6.90;;;6.80;99.90;;;;;;10564669;28;20206;-80
2022/12/08 18:29:43;;;;;;;8.00;7.30;;;6.80;99.90;;;;;;10593605;28;20297;-82
2022/12/08 18:34:45;;;;;;;8.93;8.13;;;6.80;98.90;;;;;;10593969;28;20796;-82
2022/12/08 18:39:49;;;;;;;9.43;8.47;;;6.80;99.50;;;;;;10575209;28;20222;-81
2022/12/08 18:44:54;;;;;;;8.90;8.10;;;6.70;99.90;;;;;;10580222;28;20215;-82
2022/12/08 18:49:57;;;;;;;9.20;8.30;;;6.80;99.90;;;;;;10589890;28;20218;-81
2022/12/08 18:55:00;;;;;;;8.93;8.13;;;6.70;99.90;;;;;;10568447;28;20568;-79
2022/12/08 19:00:04;;;;;;;8.77;7.83;;;6.70;99.90;;;;;;10587528;28;20298;-81
2022/12/08 19:05:07;;;;;;;8.33;7.63;;;6.70;99.90;;;;;;10550817;28;20218;-81
2022/12/08 19:10:12;;;;;;;7.00;6.40;;;6.60;99.30;;;;;;10584636;28;20239;-82
2022/12/08 19:15:14;;;;;;;7.90;7.20;;;6.50;99.00;;;;;;10562563;28;20188;-83
2022/12/08 19:20:16;;;;;;;8.50;7.60;;;6.30;99.20;;;;;;10589754;28;20241;-82
2022/12/08 19:25:20;;;;;;;11.20;10.20;;;6.10;99.70;;;;;;10589282;28;20213;-82
2022/12/08 19:30:22;;;;;;;11.70;10.60;;;5.90;99.50;;;;;;10589141;28;20231;-83
2022/12/08 19:35:24;;;;;;;10.00;8.87;;;5.70;99.90;;;;;;10590581;28;20226;-83
2022/12/08 19:45:47;;;;;;;24.27;15.90;;;5.40;99.40;;;;;;10578351;28;20215;-81
2022/12/08 19:50:50;;;;;;;7.93;7.23;;;5.20;99.40;;;;;;10532161;28;20219;-83
2022/12/08 19:55:53;;;;;;;7.33;6.63;;;5.00;98.90;;;;;;10584936;28;20496;-83
2022/12/08 20:00:55;;;;;;;8.67;7.87;;;4.80;99.90;;;;;;10595698;28;20209;-82
2022/12/08 20:05:57;;;;;;;9.80;8.87;;;4.70;99.70;;;;;;10565496;28;20249;-81
2022/12/08 20:11:01;;;;;;;9.30;8.10;;;4.70;99.70;;;;;;10563411;28;20649;-81
2022/12/08 20:16:03;;;;;;;8.07;7.27;;;4.50;99.80;;;;;;10558170;28;20689;-81
2022/12/08 20:21:06;;;;;;;13.03;11.53;;;4.50;98.60;;;;;;10523905;28;20277;-81
2022/12/08 20:40:30;;;;;;;7.10;6.40;;;4.20;99.90;;;;;;10392465;28;20221;-82
2022/12/08 20:46:01;;;;;;;8.07;7.43;;;4.10;99.90;;;;;;10537685;28;20233;-82
2022/12/08 20:51:40;;;;;;;7.60;7.00;;;4.10;99.90;;;;;;10571563;28;20238;-81
2022/12/08 20:57:43;;;;;;;6.83;6.33;;;4.10;99.90;;;;;;10559431;28;20233;-82
2022/12/08 21:02:46;;;;;;;8.50;7.70;;;4.00;99.90;;;;;;10580910;28;20234;-83
2022/12/08 21:07:48;;;;;;;8.17;7.20;;;4.00;99.90;;;;;;10581606;28;20219;-85
2022/12/08 21:12:50;;;;;;;7.90;7.30;;;3.90;99.90;;;;;;10573277;28;20242;-82
2022/12/08 21:17:54;;;;;;;7.23;6.73;;;3.90;99.90;;;;;;10550884;28;20249;-82
2022/12/08 21:22:59;;;;;;;7.83;7.07;;;3.80;99.70;;;;;;10549227;28;20199;-82
2022/12/08 21:28:01;;;;;;;7.67;7.07;;;3.80;99.70;;;;;;10596588;28;20243;-82
2022/12/08 21:33:05;;;;;;;8.97;8.27;;;3.70;99.90;;;;;;10563808;28;20203;-82
2022/12/08 21:38:15;;;;;;;6.37;5.87;;;3.60;99.90;;;;;;10560067;28;20540;-81
2022/12/08 21:43:28;;;;;;;8.60;7.63;;;3.60;99.90;;;;;;10589370;27;20195;-81
2022/12/08 21:48:42;;;;;;;8.53;7.83;;;3.60;99.90;;;;;;10504720;28;20650;-82
2022/12/08 21:53:44;;;;;;;9.43;8.53;;;3.50;99.90;;;;;;10529167;28;20200;-82
2022/12/08 21:59:16;;;;;;;9.30;8.50;;;3.50;99.90;;;;;;10560151;28;20314;-82
2022/12/08 22:04:25;;;;;;;7.30;6.70;;;3.50;99.90;;;;;;10527164;28;20766;-81
2022/12/08 22:09:40;;;;;;;16.63;13.00;;;3.50;99.90;;;;;;10531289;28;20231;-79
2022/12/08 22:15:14;;;;;;;11.73;9.90;;;3.60;99.90;;;;;;10533058;28;20200;-79
2022/12/08 22:20:35;;;;;;;15.07;12.90;;;3.50;99.90;;;;;;10552757;28;20225;-80
2022/12/08 22:26:15;;;;;;;10.97;9.97;;;3.50;99.90;;;;;;10520554;28;20235;-80
2022/12/08 22:31:33;;;;;;;14.33;12.00;;;3.50;99.90;;;;;;10538241;28;20273;-79
2022/12/08 22:37:16;;;;;;;9.93;9.10;;;3.50;99.90;;;;;;10531053;28;20195;-80
2022/12/08 22:42:22;;;;;;;12.90;11.53;;;3.40;99.90;;;;;;10534059;28;20207;-80
2022/12/08 22:47:41;;;;;;;11.87;10.67;;;3.40;99.90;;;;;;10522043;28;20222;-80
2022/12/08 22:52:47;;;;;;;9.70;8.90;;;3.30;99.90;;;;;;10532298;28;20616;-80
2022/12/08 22:57:52;;;;;;;9.80;9.00;;;3.20;99.90;;;;;;10559612;28;20317;-80
2022/12/08 23:02:55;;;;;;;9.90;9.03;;;3.20;99.90;;;;;;10549469;28;20682;-79
2022/12/08 23:07:59;;;;;;;9.40;8.50;;;3.20;99.90;;;;;;10560533;28;20228;-79
2022/12/08 23:13:01;;;;;;;7.50;6.90;;;3.20;99.90;;;;;;10562697;28;20627;-80
2022/12/08 23:18:03;;;;;;;8.20;7.23;;;3.20;99.90;;;;;;10540709;28;20208;-79
2022/12/08 23:23:07;;;;;;;8.33;7.63;;;3.20;99.80;;;;;;10548882;28;20675;-80
2022/12/08 23:28:10;;;;;;;8.83;8.13;;;3.20;99.90;;;;;;10531652;28;20679;-79
2022/12/08 23:33:13;;;;;;;9.93;7.90;;;3.20;99.90;;;;;;10563687;28;20564;-80
2022/12/08 23:38:17;;;;;;;9.20;8.40;;;3.10;99.90;;;;;;10533545;28;20204;-80
2022/12/08 23:43:19;;;;;;;8.53;7.80;;;3.10;99.90;;;;;;10545712;28;20192;-79
2022/12/08 23:59:17;;;;;;;7.50;6.80;;;3.10;99.90;;;;;;10527935;28;20227;-81
